sensor_id;sensor_type;location;lat;lon;timestamp;pressure;altitude;pressure_sealevel;temperature;humidity
19777;BME280;10047;42.490;26.012;2023-03-13T00:04:00;101173.75;;;7.41;100.00
19777;BME280;10047;42.490;26.012;2023-03-13T00:06:29;101126.53;;;7.49;100.00
19777;BME280;10047;42.490;26.012;2023-03-13T00:08:56;101055.66;;;7.28;100.00
19777;BME280;10047;42.490;26.012;2023-03-13T00:11:22;101061.63;;;7.48;100.00
19777;BME280;10047;42.490;26.012;2023-03-13T00:13:47;101051.50;;;7.42;100.00
19777;BME280;10047;42.490;26.012;2023-03-13T00:16:14;101074.28;;;7.55;100.00
19777;BME280;10047;42.490;26.012;2023-03-13T00:18:44;101055.75;;;7.86;100.00
19777;BME280;10047;42.490;26.012;2023-03-13T00:21:11;101046.47;;;7.72;100.00
19777;BME280;10047;42.490;26.012;2023-03-13T00:23:37;101022.88;;;7.68;100.00
19777;BME280;10047;42.490;26.012;2023-03-13T00:26:08;100966.34;;;7.63;100.00
19777;BME280;10047;42.490;26.012;2023-03-13T00:28:34;100975.63;;;7.66;100.00
19777;BME280;10047;42.490;26.012;2023-03-13T00:33:26;100904.78;;;7.39;100.00
19777;BME280;10047;42.490;26.012;2023-03-13T00:35:51;100937.66;;;7.48;100.00
19777;BME280;10047;42.490;26.012;2023-03-13T00:38:16;100944.41;;;7.20;100.00
19777;BME280;10047;42.490;26.012;2023-03-13T00:40:42;100874.41;;;6.98;100.00
19777;BME280;10047;42.490;26.012;2023-03-13T00:43:07;100917.44;;;7.27;100.00
19777;BME280;10047;42.490;26.012;2023-03-13T00:45:32;100883.69;;;7.22;100.00
19777;BME280;10047;42.490;26.012;2023-03-13T00:47:58;100917.44;;;7.42;100.00
19777;BME280;10047;42.490;26.012;2023-03-13T00:50:23;100866.00;;;7.13;100.00
19777;BME280;10047;42.490;26.012;2023-03-13T00:52:49;100919.94;;;7.19;100.00
19777;BME280;10047;42.490;26.012;2023-03-13T00:55:14;100910.66;;;7.12;100.00
19777;BME280;10047;42.490;26.012;2023-03-13T00:57:39;100882.84;;;7.08;100.00
19777;BME280;10047;42.490;26.012;2023-03-13T01:00:05;100854.19;;;7.25;100.00
19777;BME280;10047;42.490;26.012;2023-03-13T01:02:31;100872.75;;;7.29;100.00
19777;BME280;10047;42.490;26.012;2023-03-13T01:04:56;100808.69;;;7.12;100.00
19777;BME280;10047;42.490;26.012;2023-03-13T01:07:22;100805.34;;;7.05;100.00
19777;BME280;10047;42.490;26.012;2023-03-13T01:09:47;100792.69;;;6.61;100.00
19777;BME280;10047;42.490;26.012;2023-03-13T01:12:13;100786.78;;;6.70;100.00
19777;BME280;10047;42.490;26.012;2023-03-13T01:14:38;100792.69;;;7.07;100.00
19777;BME280;10047;42.490;26.012;2023-03-13T01:17:03;100828.06;;;7.22;100.00
19777;BME280;10047;42.490;26.012;2023-03-13T01:19:29;100825.53;;;7.29;100.00
19777;BME280;10047;42.490;26.012;2023-03-13T01:21:54;100789.34;;;6.79;100.00
19777;BME280;10047;42.490;26.012;2023-03-13T01:24:20;100831.41;;;6.68;100.00
19777;BME280;10047;42.490;26.012;2023-03-13T01:26:46;100820.47;;;6.61;100.00
19777;BME280;10047;42.490;26.012;2023-03-13T01:29:12;100774.16;;;6.47;100.00
19777;BME280;10047;42.490;26.012;2023-03-13T01:31:37;100815.41;;;6.58;100.00
19777;BME280;10047;42.490;26.012;2023-03-13T01:34:04;100833.97;;;6.84;100.00
19777;BME280;10047;42.490;26.012;2023-03-13T01:36:30;100807.78;;;6.31;100.00
19777;BME280;10047;42.490;26.012;2023-03-13T01:38:58;100780.88;;;6.56;100.00
19777;BME280;10047;42.490;26.012;2023-03-13T01:41:24;100827.22;;;6.76;100.00
19777;BME280;10047;42.490;26.012;2023-03-13T01:43:50;100753.84;;;6.05;100.00
19777;BME280;10047;42.490;26.012;2023-03-13T01:46:17;100842.31;;;6.52;100.00
19777;BME280;10047;42.490;26.012;2023-03-13T01:52:00;100843.22;;;6.72;100.00
19777;BME280;10047;42.490;26.012;2023-03-13T01:54:10;100837.22;;;6.25;100.00
19777;BME280;10047;42.490;26.012;2023-03-13T01:56:46;100789.22;;;6.08;100.00
19777;BME280;10047;42.490;26.012;2023-03-13T01:59:15;100769.72;;;5.83;100.00
19777;BME280;10047;42.490;26.012;2023-03-13T02:01:43;100849.00;;;6.29;100.00
19777;BME280;10047;42.490;26.012;2023-03-13T02:04:11;100775.47;;;5.53;100.00
19777;BME280;10047;42.490;26.012;2023-03-13T02:06:40;100811.06;;;6.00;100.00
19777;BME280;10047;42.490;26.012;2023-03-13T02:09:10;100806.84;;;5.96;100.00
19777;BME280;10047;42.490;26.012;2023-03-13T02:11:46;100863.19;;;6.02;100.00
19777;BME280;10047;42.490;26.012;2023-03-13T02:14:15;100854.00;;;6.06;100.00
19777;BME280;10047;42.490;26.012;2023-03-13T02:16:41;100827.03;;;6.00;100.00
19777;BME280;10047;42.490;26.012;2023-03-13T02:19:48;100886.69;;;5.88;100.00
19777;BME280;10047;42.490;26.012;2023-03-13T02:30:24;100881.00;;;6.31;100.00
19777;BME280;10047;42.490;26.012;2023-03-13T02:32:50;100895.81;;;5.75;100.00
19777;BME280;10047;42.490;26.012;2023-03-13T02:35:19;100884.63;;;5.33;100.00
19777;BME280;10047;42.490;26.012;2023-03-13T02:37:49;100905.88;;;5.69;100.00
19777;BME280;10047;42.490;26.012;2023-03-13T02:40:21;100849.28;;;5.26;100.00
19777;BME280;10047;42.490;26.012;2023-03-13T02:42:49;100901.50;;;5.43;100.00
19777;BME280;10047;42.490;26.012;2023-03-13T02:45:17;100825.59;;;5.09;100.00
19777;BME280;10047;42.490;26.012;2023-03-13T02:47:42;100922.53;;;5.45;100.00
19777;BME280;10047;42.490;26.012;2023-03-13T02:50:08;100921.03;;;5.72;100.00
19777;BME280;10047;42.490;26.012;2023-03-13T02:52:50;100842.75;;;5.54;100.00
19777;BME280;10047;42.490;26.012;2023-03-13T02:55:22;100936.94;;;5.62;100.00
19777;BME280;10047;42.490;26.012;2023-03-13T02:57:49;100921.16;;;4.88;100.00
19777;BME280;10047;42.490;26.012;2023-03-13T03:00:15;100886.63;;;4.80;100.00
19777;BME280;10047;42.490;26.012;2023-03-13T03:02:42;100948.59;;;4.66;100.00
19777;BME280;10047;42.490;26.012;2023-03-13T03:05:08;100953.00;;;4.83;100.00
19777;BME280;10047;42.490;26.012;2023-03-13T03:07:34;100909.97;;;4.62;100.00
19777;BME280;10047;42.490;26.012;2023-03-13T03:09:59;100919.97;;;4.58;100.00
19777;BME280;10047;42.490;26.012;2023-03-13T03:12:25;100954.75;;;4.90;100.00
19777;BME280;10047;42.490;26.012;2023-03-13T03:14:50;100954.53;;;4.71;100.00
19777;BME280;10047;42.490;26.012;2023-03-13T03:17:16;100893.00;;;4.46;100.00
19777;BME280;10047;42.490;26.012;2023-03-13T03:19:41;100887.22;;;4.56;100.00
19777;BME280;10047;42.490;26.012;2023-03-13T03:22:07;100957.72;;;4.56;100.00
19777;BME280;10047;42.490;26.012;2023-03-13T03:24:32;100953.28;;;4.35;100.00
19777;BME280;10047;42.490;26.012;2023-03-13T03:26:57;100872.28;;;3.98;100.00
19777;BME280;10047;42.490;26.012;2023-03-13T03:29:23;100923.53;;;4.06;100.00
19777;BME280;10047;42.490;26.012;2023-03-13T03:31:48;100957.16;;;4.12;100.00
19777;BME280;10047;42.490;26.012;2023-03-13T03:34:13;100927.66;;;4.01;100.00
19777;BME280;10047;42.490;26.012;2023-03-13T03:36:39;100824.25;;;3.21;100.00
19777;BME280;10047;42.490;26.012;2023-03-13T03:39:04;100879.94;;;4.07;100.00
19777;BME280;10047;42.490;26.012;2023-03-13T03:41:30;100922.69;;;4.05;100.00
19777;BME280;10047;42.490;26.012;2023-03-13T03:43:56;100884.16;;;4.09;100.00
19777;BME280;10047;42.490;26.012;2023-03-13T03:46:21;100948.81;;;4.15;100.00
19777;BME280;10047;42.490;26.012;2023-03-13T03:48:47;100950.88;;;3.83;100.00
19777;BME280;10047;42.490;26.012;2023-03-13T03:51:12;100949.78;;;4.26;100.00
19777;BME280;10047;42.490;26.012;2023-03-13T03:53:38;100953.25;;;4.34;100.00
19777;BME280;10047;42.490;26.012;2023-03-13T03:56:03;100906.38;;;3.79;100.00
19777;BME280;10047;42.490;26.012;2023-03-13T03:58:29;100919.16;;;3.93;100.00
19777;BME280;10047;42.490;26.012;2023-03-13T04:00:57;100916.63;;;3.93;100.00
19777;BME280;10047;42.490;26.012;2023-03-13T04:03:23;100961.81;;;4.47;100.00
19777;BME280;10047;42.490;26.012;2023-03-13T04:05:49;100907.91;;;4.31;100.00
19777;BME280;10047;42.490;26.012;2023-03-13T04:08:14;100891.91;;;4.24;100.00
19777;BME280;10047;42.490;26.012;2023-03-13T04:10:40;100900.22;;;4.17;100.00
19777;BME280;10047;42.490;26.012;2023-03-13T04:13:06;100901.69;;;4.02;100.00
19777;BME280;10047;42.490;26.012;2023-03-13T04:15:31;100903.78;;;4.36;100.00
19777;BME280;10047;42.490;26.012;2023-03-13T04:17:56;100921.81;;;4.02;100.00
19777;BME280;10047;42.490;26.012;2023-03-13T04:20:22;100857.63;;;3.68;100.00
19777;BME280;10047;42.490;26.012;2023-03-13T04:22:47;100896.28;;;4.39;100.00
19777;BME280;10047;42.490;26.012;2023-03-13T04:25:13;100915.41;;;4.28;100.00
19777;BME280;10047;42.490;26.012;2023-03-13T04:27:38;100965.91;;;4.40;100.00
19777;BME280;10047;42.490;26.012;2023-03-13T04:30:04;100980.22;;;4.43;100.00
19777;BME280;10047;42.490;26.012;2023-03-13T04:32:30;100918.38;;;3.97;100.00
19777;BME280;10047;42.490;26.012;2023-03-13T04:34:55;100963.69;;;4.61;100.00
19777;BME280;10047;42.490;26.012;2023-03-13T04:37:20;100966.13;;;4.58;100.00
19777;BME280;10047;42.490;26.012;2023-03-13T04:39:46;100924.13;;;4.53;100.00
19777;BME280;10047;42.490;26.012;2023-03-13T04:42:12;100938.44;;;4.57;100.00
19777;BME280;10047;42.490;26.012;2023-03-13T04:44:38;100988.94;;;4.67;100.00
19777;BME280;10047;42.490;26.012;2023-03-13T04:47:03;100941.03;;;4.63;100.00
19777;BME280;10047;42.490;26.012;2023-03-13T04:49:29;100930.91;;;3.94;100.00
19777;BME280;10047;42.490;26.012;2023-03-13T04:51:55;100986.91;;;4.42;100.00
19777;BME280;10047;42.490;26.012;2023-03-13T04:54:21;100949.41;;;3.99;100.00
19777;BME280;10047;42.490;26.012;2023-03-13T04:56:46;101007.19;;;4.51;100.00
19777;BME280;10047;42.490;26.012;2023-03-13T04:59:12;100983.22;;;4.16;100.00
19777;BME280;10047;42.490;26.012;2023-03-13T05:01:39;100962.06;;;4.03;100.00
19777;BME280;10047;42.490;26.012;2023-03-13T05:04:12;100928.66;;;4.12;100.00
19777;BME280;10047;42.490;26.012;2023-03-13T05:06:38;100972.03;;;4.60;100.00
19777;BME280;10047;42.490;26.012;2023-03-13T05:09:03;100966.69;;;4.34;100.00
19777;BME280;10047;42.490;26.012;2023-03-13T05:11:29;100963.38;;;4.40;100.00
19777;BME280;10047;42.490;26.012;2023-03-13T05:13:54;101005.41;;;6.06;100.00
19777;BME280;10047;42.490;26.012;2023-03-13T05:16:20;100955.88;;;9.99;100.00
19777;BME280;10047;42.490;26.012;2023-03-13T05:18:45;101001.44;;;12.04;100.00
19777;BME280;10047;42.490;26.012;2023-03-13T05:21:11;101028.66;;;11.48;100.00
19777;BME280;10047;42.490;26.012;2023-03-13T05:23:38;101014.84;;;12.15;100.00
19777;BME280;10047;42.490;26.012;2023-03-13T05:26:04;100997.75;;;11.14;100.00
19777;BME280;10047;42.490;26.012;2023-03-13T05:28:29;101026.34;;;12.38;100.00
19777;BME280;10047;42.490;26.012;2023-03-13T05:30:55;101106.34;;;10.33;100.00
19777;BME280;10047;42.490;26.012;2023-03-13T05:33:30;101121.63;;;8.54;100.00
19777;BME280;10047;42.490;26.012;2023-03-13T05:35:56;101125.00;;;8.02;100.00
19777;BME280;10047;42.490;26.012;2023-03-13T05:38:21;101027.91;;;7.58;100.00
19777;BME280;10047;42.490;26.012;2023-03-13T05:40:46;101113.13;;;7.66;100.00
19777;BME280;10047;42.490;26.012;2023-03-13T05:43:12;101094.53;;;7.54;100.00
19777;BME280;10047;42.490;26.012;2023-03-13T05:45:37;101097.09;;;7.87;100.00
19777;BME280;10047;42.490;26.012;2023-03-13T05:48:03;101136.78;;;8.18;100.00
19777;BME280;10047;42.490;26.012;2023-03-13T05:50:28;101116.53;;;8.23;100.00
19777;BME280;10047;42.490;26.012;2023-03-13T05:52:54;101067.59;;;8.28;100.00
19777;BME280;10047;42.490;26.012;2023-03-13T05:55:20;101160.47;;;8.65;100.00
19777;BME280;10047;42.490;26.012;2023-03-13T05:57:46;101167.16;;;8.98;100.00
19777;BME280;10047;42.490;26.012;2023-03-13T06:00:14;101102.84;;;9.16;100.00
19777;BME280;10047;42.490;26.012;2023-03-13T06:02:40;101158.66;;;9.11;100.00
19777;BME280;10047;42.490;26.012;2023-03-13T06:05:07;101123.28;;;8.54;100.00
19777;BME280;10047;42.490;26.012;2023-03-13T06:07:33;101169.41;;;9.75;100.00
19777;BME280;10047;42.490;26.012;2023-03-13T06:09:59;101153.63;;;9.08;100.00
19777;BME280;10047;42.490;26.012;2023-03-13T06:12:24;101172.16;;;9.33;100.00
19777;BME280;10047;42.490;26.012;2023-03-13T06:14:49;101175.97;;;10.06;100.00
19777;BME280;10047;42.490;26.012;2023-03-13T06:17:15;101187.19;;;10.90;100.00
19777;BME280;10047;42.490;26.012;2023-03-13T06:19:40;101195.38;;;10.25;100.00
19777;BME280;10047;42.490;26.012;2023-03-13T06:22:06;101213.66;;;9.00;100.00
19777;BME280;10047;42.490;26.012;2023-03-13T06:24:31;101207.41;;;11.02;100.00
19777;BME280;10047;42.490;26.012;2023-03-13T06:26:57;101215.25;;;10.80;100.00
19777;BME280;10047;42.490;26.012;2023-03-13T06:29:22;101220.88;;;10.07;100.00
19777;BME280;10047;42.490;26.012;2023-03-13T06:31:49;101228.94;;;10.68;100.00
19777;BME280;10047;42.490;26.012;2023-03-13T06:34:15;101230.28;;;11.04;100.00
19777;BME280;10047;42.490;26.012;2023-03-13T06:36:41;101159.56;;;10.53;100.00
19777;BME280;10047;42.490;26.012;2023-03-13T06:39:06;101255.44;;;10.38;100.00
19777;BME280;10047;42.490;26.012;2023-03-13T06:41:32;101185.63;;;10.74;100.00
19777;BME280;10047;42.490;26.012;2023-03-13T06:43:58;101248.22;;;11.75;100.00
19777;BME280;10047;42.490;26.012;2023-03-13T06:46:23;101259.34;;;11.67;100.00
19777;BME280;10047;42.490;26.012;2023-03-13T06:48:49;101233.09;;;10.78;100.00
19777;BME280;10047;42.490;26.012;2023-03-13T06:51:18;101279.63;;;10.91;100.00
19777;BME280;10047;42.490;26.012;2023-03-13T06:53:44;101232.56;;;11.32;100.00
19777;BME280;10047;42.490;26.012;2023-03-13T06:56:10;101232.75;;;11.14;100.00
19777;BME280;10047;42.490;26.012;2023-03-13T06:58:35;101274.22;;;11.98;100.00
19777;BME280;10047;42.490;26.012;2023-03-13T07:01:09;101287.25;;;11.77;100.00
19777;BME280;10047;42.490;26.012;2023-03-13T07:03:36;101265.34;;;12.28;100.00
19777;BME280;10047;42.490;26.012;2023-03-13T07:06:02;101252.00;;;12.67;100.00
19777;BME280;10047;42.490;26.012;2023-03-13T07:08:30;101278.41;;;12.05;100.00
19777;BME280;10047;42.490;26.012;2023-03-13T07:11:01;101246.81;;;13.22;100.00
19777;BME280;10047;42.490;26.012;2023-03-13T07:13:27;101282.00;;;12.52;100.00
19777;BME280;10047;42.490;26.012;2023-03-13T07:15:53;101227.50;;;12.56;100.00
19777;BME280;10047;42.490;26.012;2023-03-13T07:18:19;101269.09;;;12.61;100.00
19777;BME280;10047;42.490;26.012;2023-03-13T07:20:51;101303.28;;;11.87;100.00
19777;BME280;10047;42.490;26.012;2023-03-13T07:23:16;101306.72;;;11.84;100.00
19777;BME280;10047;42.490;26.012;2023-03-13T07:25:42;101291.38;;;12.51;100.00
19777;BME280;10047;42.490;26.012;2023-03-13T07:28:07;101268.69;;;12.30;100.00
19777;BME280;10047;42.490;26.012;2023-03-13T07:30:33;101259.28;;;12.35;100.00
19777;BME280;10047;42.490;26.012;2023-03-13T07:32:58;101322.13;;;12.97;100.00
19777;BME280;10047;42.490;26.012;2023-03-13T07:35:24;101317.13;;;12.91;100.00
19777;BME280;10047;42.490;26.012;2023-03-13T07:37:51;101272.81;;;12.42;100.00
19777;BME280;10047;42.490;26.012;2023-03-13T07:40:16;101290.09;;;12.79;100.00
19777;BME280;10047;42.490;26.012;2023-03-13T07:42:41;101309.84;;;13.20;100.00
19777;BME280;10047;42.490;26.012;2023-03-13T07:45:08;101309.03;;;12.63;100.00
19777;BME280;10047;42.490;26.012;2023-03-13T07:47:34;101284.72;;;13.45;100.00
19777;BME280;10047;42.490;26.012;2023-03-13T07:49:59;101188.72;;;12.86;100.00
19777;BME280;10047;42.490;26.012;2023-03-13T07:52:24;101183.88;;;12.71;100.00
19777;BME280;10047;42.490;26.012;2023-03-13T07:54:52;101049.63;;;13.08;100.00
19777;BME280;10047;42.490;26.012;2023-03-13T07:57:17;100971.47;;;12.17;100.00
19777;BME280;10047;42.490;26.012;2023-03-13T07:59:43;100891.91;;;12.82;100.00
19777;BME280;10047;42.490;26.012;2023-03-13T08:02:10;100714.22;;;13.12;100.00
19777;BME280;10047;42.490;26.012;2023-03-13T08:04:38;100488.53;;;12.59;100.00
19777;BME280;10047;42.490;26.012;2023-03-13T08:07:10;100241.56;;;11.90;100.00
19777;BME280;10047;42.490;26.012;2023-03-13T08:09:35;99991.41;;;12.53;100.00
19777;BME280;10047;42.490;26.012;2023-03-13T08:12:01;99713.72;;;12.26;100.00
19777;BME280;10047;42.490;26.012;2023-03-13T08:14:27;99438.03;;;12.73;100.00
19777;BME280;10047;42.490;26.012;2023-03-13T08:16:52;99304.94;;;12.99;100.00
19777;BME280;10047;42.490;26.012;2023-03-13T08:19:18;99255.47;;;13.69;100.00
19777;BME280;10047;42.490;26.012;2023-03-13T08:21:43;99468.19;;;12.82;100.00
19777;BME280;10047;42.490;26.012;2023-03-13T08:24:10;99676.63;;;12.80;100.00
19777;BME280;10047;42.490;26.012;2023-03-13T08:26:37;99775.22;;;13.01;100.00
19777;BME280;10047;42.490;26.012;2023-03-13T08:29:06;99955.41;;;13.07;100.00
19777;BME280;10047;42.490;26.012;2023-03-13T08:31:35;100032.00;;;12.35;100.00
19777;BME280;10047;42.490;26.012;2023-03-13T08:34:01;100086.78;;;13.20;100.00
19777;BME280;10047;42.490;26.012;2023-03-13T08:36:30;100145.25;;;13.49;100.00
19777;BME280;10047;42.490;26.012;2023-03-13T08:38:58;100277.66;;;13.12;100.00
19777;BME280;10047;42.490;26.012;2023-03-13T08:41:26;100337.13;;;12.88;100.00
19777;BME280;10047;42.490;26.012;2023-03-13T08:43:56;100364.88;;;13.51;100.00
19777;BME280;10047;42.490;26.012;2023-03-13T08:46:22;100493.50;;;12.64;100.00
19777;BME280;10047;42.490;26.012;2023-03-13T08:48:49;100475.94;;;12.53;100.00
19777;BME280;10047;42.490;26.012;2023-03-13T08:51:15;100577.31;;;13.65;100.00
19777;BME280;10047;42.490;26.012;2023-03-13T08:53:42;100584.59;;;13.22;95.94
19777;BME280;10047;42.490;26.012;2023-03-13T08:56:09;100652.50;;;12.64;97.63
19777;BME280;10047;42.490;26.012;2023-03-13T08:58:34;100638.72;;;12.71;92.87
19777;BME280;10047;42.490;26.012;2023-03-13T09:01:12;100648.91;;;13.34;93.73
19777;BME280;10047;42.490;26.012;2023-03-13T09:03:38;100679.22;;;12.83;93.37
19777;BME280;10047;42.490;26.012;2023-03-13T09:06:04;100726.97;;;13.12;92.97
19777;BME280;10047;42.490;26.012;2023-03-13T09:11:00;100728.97;;;13.01;95.46
19777;BME280;10047;42.490;26.012;2023-03-13T09:13:27;100720.88;;;12.13;90.50
19777;BME280;10047;42.490;26.012;2023-03-13T09:16:01;100686.88;;;12.14;86.83
19777;BME280;10047;42.490;26.012;2023-03-13T09:18:28;100726.88;;;13.47;81.90
19777;BME280;10047;42.490;26.012;2023-03-13T09:20:53;100782.50;;;13.68;84.77
19777;BME280;10047;42.490;26.012;2023-03-13T09:23:20;100790.53;;;13.23;86.00
19777;BME280;10047;42.490;26.012;2023-03-13T09:25:47;100791.66;;;13.75;85.84
19777;BME280;10047;42.490;26.012;2023-03-13T09:28:13;100816.56;;;12.30;81.67
19777;BME280;10047;42.490;26.012;2023-03-13T09:30:38;100751.03;;;13.03;79.69
19777;BME280;10047;42.490;26.012;2023-03-13T09:33:04;100762.44;;;12.89;75.36
19777;BME280;10047;42.490;26.012;2023-03-13T09:35:29;100785.78;;;13.41;77.03
19777;BME280;10047;42.490;26.012;2023-03-13T09:37:55;100831.81;;;14.32;72.48
19777;BME280;10047;42.490;26.012;2023-03-13T09:40:23;100832.91;;;13.92;65.51
19777;BME280;10047;42.490;26.012;2023-03-13T09:42:57;100845.00;;;13.55;58.58
19777;BME280;10047;42.490;26.012;2023-03-13T09:45:35;100811.31;;;14.03;59.27
19777;BME280;10047;42.490;26.012;2023-03-13T09:48:09;100808.69;;;14.35;56.14
19777;BME280;10047;42.490;26.012;2023-03-13T09:50:46;100807.16;;;13.99;56.31
19777;BME280;10047;42.490;26.012;2023-03-13T09:53:26;100855.59;;;14.05;54.41
19777;BME280;10047;42.490;26.012;2023-03-13T09:55:55;100864.78;;;13.15;55.03
19777;BME280;10047;42.490;26.012;2023-03-13T09:58:23;100808.69;;;13.12;52.87
19777;BME280;10047;42.490;26.012;2023-03-13T10:00:57;100845.75;;;13.91;55.09
19777;BME280;10047;42.490;26.012;2023-03-13T10:03:29;100799.41;;;13.08;54.69
19777;BME280;10047;42.490;26.012;2023-03-13T10:05:58;100838.56;;;13.42;56.02
19777;BME280;10047;42.490;26.012;2023-03-13T10:08:26;100776.75;;;15.00;52.62
19777;BME280;10047;42.490;26.012;2023-03-13T10:17:06;100817.56;;;13.92;56.96
19777;BME280;10047;42.490;26.012;2023-03-13T10:19:37;100783.03;;;14.90;55.41
19777;BME280;10047;42.490;26.012;2023-03-13T10:22:16;100802.22;;;15.29;54.56
19777;BME280;10047;42.490;26.012;2023-03-13T10:25:00;100756.06;;;13.69;55.56
19777;BME280;10047;42.490;26.012;2023-03-13T10:27:27;100795.31;;;15.31;56.61
19777;BME280;10047;42.490;26.012;2023-03-13T10:29:53;100761.91;;;14.85;54.96
19777;BME280;10047;42.490;26.012;2023-03-13T10:32:18;100798.53;;;14.87;55.02
19777;BME280;10047;42.490;26.012;2023-03-13T10:37:15;100780.09;;;14.76;58.39
19777;BME280;10047;42.490;26.012;2023-03-13T10:39:40;100780.00;;;14.53;53.91
19777;BME280;10047;42.490;26.012;2023-03-13T10:42:41;100797.53;;;14.37;54.28
19777;BME280;10047;42.490;26.012;2023-03-13T10:45:16;100742.97;;;14.89;54.61
19777;BME280;10047;42.490;26.012;2023-03-13T10:47:43;100713.03;;;15.63;49.42
19777;BME280;10047;42.490;26.012;2023-03-13T10:50:21;100761.75;;;14.63;49.69
19777;BME280;10047;42.490;26.012;2023-03-13T10:52:49;100783.81;;;15.68;50.33
19777;BME280;10047;42.490;26.012;2023-03-13T10:55:20;100785.84;;;15.09;49.25
19777;BME280;10047;42.490;26.012;2023-03-13T10:58:03;100785.31;;;14.99;49.49
19777;BME280;10047;42.490;26.012;2023-03-13T11:02:57;100782.00;;;15.46;49.45
19777;BME280;10047;42.490;26.012;2023-03-13T11:05:36;100779.53;;;15.19;49.02
19777;BME280;10047;42.490;26.012;2023-03-13T11:08:55;100784.28;;;14.78;48.75
19777;BME280;10047;42.490;26.012;2023-03-13T11:11:04;100737.53;;;14.47;49.16
19777;BME280;10047;42.490;26.012;2023-03-13T11:13:39;100774.09;;;14.51;48.86
19777;BME280;10047;42.490;26.012;2023-03-13T11:16:20;100774.47;;;14.39;48.45
19777;BME280;10047;42.490;26.012;2023-03-13T11:21:35;100722.91;;;15.02;48.01
19777;BME280;10047;42.490;26.012;2023-03-13T11:24:14;100723.28;;;14.39;49.92
19777;BME280;10047;42.490;26.012;2023-03-13T11:27:26;100669.53;;;14.90;50.20
19777;BME280;10047;42.490;26.012;2023-03-13T11:29:57;100748.38;;;14.54;51.07
19777;BME280;10047;42.490;26.012;2023-03-13T11:32:33;100707.44;;;13.71;50.87
19777;BME280;10047;42.490;26.012;2023-03-13T11:35:11;100688.81;;;14.23;50.39
19777;BME280;10047;42.490;26.012;2023-03-13T11:37:43;100700.22;;;14.66;52.19
19777;BME280;10047;42.490;26.012;2023-03-13T11:40:20;100722.22;;;14.97;50.24
19777;BME280;10047;42.490;26.012;2023-03-13T11:50:54;100682.19;;;15.19;50.48
19777;BME280;10047;42.490;26.012;2023-03-13T11:54:08;100677.00;;;15.45;49.68
19777;BME280;10047;42.490;26.012;2023-03-13T11:56:42;100702.28;;;15.29;49.68
19777;BME280;10047;42.490;26.012;2023-03-13T11:59:15;100699.88;;;15.73;50.48
19777;BME280;10047;42.490;26.012;2023-03-13T12:01:52;100686.63;;;15.83;48.91
19777;BME280;10047;42.490;26.012;2023-03-13T12:04:33;100656.16;;;15.29;48.45
19777;BME280;10047;42.490;26.012;2023-03-13T12:07:02;100691.53;;;15.89;48.58
19777;BME280;10047;42.490;26.012;2023-03-13T12:09:33;100692.56;;;14.91;49.28
19777;BME280;10047;42.490;26.012;2023-03-13T12:12:09;100697.66;;;15.16;48.44
19777;BME280;10047;42.490;26.012;2023-03-13T12:14:39;100686.44;;;15.66;49.47
19777;BME280;10047;42.490;26.012;2023-03-13T12:17:14;100671.63;;;14.54;49.13
19777;BME280;10047;42.490;26.012;2023-03-13T12:20:07;100680.63;;;14.65;49.26
19777;BME280;10047;42.490;26.012;2023-03-13T12:28:28;100678.38;;;15.77;47.59
19777;BME280;10047;42.490;26.012;2023-03-13T12:33:42;100662.19;;;16.18;46.94
19777;BME280;10047;42.490;26.012;2023-03-13T12:41:36;100671.66;;;14.78;48.00
19777;BME280;10047;42.490;26.012;2023-03-13T12:44:09;100614.97;;;14.89;48.21
19777;BME280;10047;42.490;26.012;2023-03-13T13:00:43;100655.38;;;15.74;47.15
19777;BME280;10047;42.490;26.012;2023-03-13T13:06:04;100619.13;;;15.83;46.31
19777;BME280;10047;42.490;26.012;2023-03-13T13:16:47;100666.63;;;15.23;49.13
19777;BME280;10047;42.490;26.012;2023-03-13T13:24:56;100622.31;;;14.98;48.97
19777;BME280;10047;42.490;26.012;2023-03-13T13:27:45;100617.72;;;14.08;50.29
19777;BME280;10047;42.490;26.012;2023-03-13T13:32:49;100662.72;;;14.90;50.22
19777;BME280;10047;42.490;26.012;2023-03-13T13:35:32;100654.81;;;14.96;50.92
19777;BME280;10047;42.490;26.012;2023-03-13T13:40:58;100604.34;;;14.26;51.76
19777;BME280;10047;42.490;26.012;2023-03-13T13:43:24;100612.78;;;15.02;50.84
19777;BME280;10047;42.490;26.012;2023-03-13T13:51:37;100646.59;;;14.63;50.96
19777;BME280;10047;42.490;26.012;2023-03-13T13:56:51;100627.13;;;14.58;51.45
19777;BME280;10047;42.490;26.012;2023-03-13T14:01:46;100636.94;;;15.42;51.69
19777;BME280;10047;42.490;26.012;2023-03-13T14:06:42;100613.00;;;14.20;51.55
19777;BME280;10047;42.490;26.012;2023-03-13T14:12:26;100633.00;;;14.61;52.95
19777;BME280;10047;42.490;26.012;2023-03-13T14:15:17;100633.31;;;14.77;52.09
19777;BME280;10047;42.490;26.012;2023-03-13T14:17:52;100572.09;;;14.94;52.53
19777;BME280;10047;42.490;26.012;2023-03-13T14:23:40;100577.00;;;15.68;51.09
19777;BME280;10047;42.490;26.012;2023-03-13T14:26:15;100598.88;;;14.61;52.31
19777;BME280;10047;42.490;26.012;2023-03-13T14:28:45;100585.91;;;14.15;54.73
19777;BME280;10047;42.490;26.012;2023-03-13T14:31:24;100599.09;;;14.80;53.20
19777;BME280;10047;42.490;26.012;2023-03-13T14:33:50;100563.19;;;15.04;52.67
19777;BME280;10047;42.490;26.012;2023-03-13T14:36:16;100610.16;;;16.14;51.59